sensor_id;sensor_type;location;lat;lon;timestamp;P1;durP1;ratioP1;P2;durP2;ratioP2
5299;SDS011;70402;42.670;23.258;2023-10-19T00:02:05;14.27;;;7.57;;
5299;SDS011;70402;42.670;23.258;2023-10-19T00:04:31;13.33;;;8.20;;
5299;SDS011;70402;42.670;23.258;2023-10-19T00:07:00;13.43;;;6.83;;
5299;SDS011;70402;42.670;23.258;2023-10-19T00:09:26;12.97;;;7.30;;
5299;SDS011;70402;42.670;23.258;2023-10-19T00:12:05;13.13;;;6.80;;
5299;SDS011;70402;42.670;23.258;2023-10-19T00:14:34;12.77;;;7.38;;
5299;SDS011;70402;42.670;23.258;2023-10-19T00:17:00;12.40;;;7.17;;
5299;SDS011;70402;42.670;23.258;2023-10-19T00:19:32;15.07;;;7.97;;
5299;SDS011;70402;42.670;23.258;2023-10-19T00:22:04;11.90;;;6.47;;
5299;SDS011;70402;42.670;23.258;2023-10-19T00:24:41;12.02;;;7.57;;
5299;SDS011;70402;42.670;23.258;2023-10-19T00:27:07;15.50;;;7.23;;
5299;SDS011;70402;42.670;23.258;2023-10-19T00:29:40;9.13;;;6.20;;
5299;SDS011;70402;42.670;23.258;2023-10-19T00:32:13;10.73;;;6.57;;
5299;SDS011;70402;42.670;23.258;2023-10-19T00:34:40;12.10;;;7.80;;
5299;SDS011;70402;42.670;23.258;2023-10-19T00:37:08;15.97;;;7.10;;
5299;SDS011;70402;42.670;23.258;2023-10-19T00:39:36;11.60;;;7.80;;
5299;SDS011;70402;42.670;23.258;2023-10-19T00:42:19;13.50;;;6.63;;
5299;SDS011;70402;42.670;23.258;2023-10-19T00:44:49;11.90;;;7.78;;
5299;SDS011;70402;42.670;23.258;2023-10-19T00:47:16;9.50;;;6.10;;
5299;SDS011;70402;42.670;23.258;2023-10-19T00:49:47;11.63;;;7.23;;
5299;SDS011;70402;42.670;23.258;2023-10-19T00:52:13;9.80;;;6.70;;
5299;SDS011;70402;42.670;23.258;2023-10-19T00:54:48;13.50;;;7.90;;
5299;SDS011;70402;42.670;23.258;2023-10-19T00:57:16;15.17;;;8.43;;
5299;SDS011;70402;42.670;23.258;2023-10-19T00:59:46;12.63;;;7.30;;
5299;SDS011;70402;42.670;23.258;2023-10-19T01:02:19;12.30;;;7.57;;
5299;SDS011;70402;42.670;23.258;2023-10-19T01:04:47;13.50;;;8.07;;
5299;SDS011;70402;42.670;23.258;2023-10-19T01:07:26;13.97;;;7.90;;
5299;SDS011;70402;42.670;23.258;2023-10-19T01:09:56;13.10;;;8.00;;
5299;SDS011;70402;42.670;23.258;2023-10-19T01:12:24;11.90;;;8.10;;
5299;SDS011;70402;42.670;23.258;2023-10-19T01:17:40;12.20;;;7.53;;
5299;SDS011;70402;42.670;23.258;2023-10-19T01:20:09;12.87;;;7.97;;
5299;SDS011;70402;42.670;23.258;2023-10-19T01:25:14;13.03;;;8.00;;
5299;SDS011;70402;42.670;23.258;2023-10-19T01:27:45;12.07;;;7.40;;
5299;SDS011;70402;42.670;23.258;2023-10-19T01:30:12;16.77;;;8.10;;
5299;SDS011;70402;42.670;23.258;2023-10-19T01:32:41;12.60;;;7.40;;
5299;SDS011;70402;42.670;23.258;2023-10-19T01:35:07;12.35;;;7.32;;
5299;SDS011;70402;42.670;23.258;2023-10-19T01:37:33;12.50;;;7.97;;
5299;SDS011;70402;42.670;23.258;2023-10-19T01:40:03;13.57;;;7.90;;
5299;SDS011;70402;42.670;23.258;2023-10-19T01:42:29;13.13;;;8.60;;
5299;SDS011;70402;42.670;23.258;2023-10-19T01:44:56;13.43;;;8.27;;
5299;SDS011;70402;42.670;23.258;2023-10-19T01:47:21;13.10;;;8.13;;
5299;SDS011;70402;42.670;23.258;2023-10-19T01:49:48;13.43;;;8.40;;
5299;SDS011;70402;42.670;23.258;2023-10-19T01:52:17;12.57;;;7.80;;
5299;SDS011;70402;42.670;23.258;2023-10-19T01:54:43;11.57;;;7.60;;
5299;SDS011;70402;42.670;23.258;2023-10-19T01:57:09;10.80;;;7.07;;
5299;SDS011;70402;42.670;23.258;2023-10-19T01:59:35;12.17;;;7.50;;
5299;SDS011;70402;42.670;23.258;2023-10-19T02:02:00;14.23;;;7.93;;
5299;SDS011;70402;42.670;23.258;2023-10-19T02:04:27;12.30;;;8.07;;
5299;SDS011;70402;42.670;23.258;2023-10-19T02:06:53;12.27;;;7.43;;
5299;SDS011;70402;42.670;23.258;2023-10-19T02:09:19;13.30;;;7.60;;
5299;SDS011;70402;42.670;23.258;2023-10-19T02:11:58;10.30;;;6.80;;
5299;SDS011;70402;42.670;23.258;2023-10-19T02:14:24;9.30;;;6.40;;
5299;SDS011;70402;42.670;23.258;2023-10-19T02:16:52;10.63;;;6.83;;
5299;SDS011;70402;42.670;23.258;2023-10-19T02:19:18;13.53;;;8.00;;
5299;SDS011;70402;42.670;23.258;2023-10-19T02:21:48;13.00;;;7.50;;
5299;SDS011;70402;42.670;23.258;2023-10-19T02:24:15;11.20;;;6.47;;
5299;SDS011;70402;42.670;23.258;2023-10-19T02:26:42;10.00;;;7.37;;
5299;SDS011;70402;42.670;23.258;2023-10-19T02:29:08;11.97;;;7.60;;
5299;SDS011;70402;42.670;23.258;2023-10-19T02:31:35;15.80;;;8.50;;
5299;SDS011;70402;42.670;23.258;2023-10-19T02:34:05;11.70;;;7.67;;
5299;SDS011;70402;42.670;23.258;2023-10-19T02:36:34;12.57;;;7.30;;
5299;SDS011;70402;42.670;23.258;2023-10-19T02:39:03;10.00;;;7.00;;
5299;SDS011;70402;42.670;23.258;2023-10-19T02:41:37;13.57;;;7.30;;
5299;SDS011;70402;42.670;23.258;2023-10-19T02:44:07;12.70;;;7.77;;
5299;SDS011;70402;42.670;23.258;2023-10-19T02:46:43;12.90;;;7.67;;
5299;SDS011;70402;42.670;23.258;2023-10-19T02:49:15;13.75;;;6.88;;
5299;SDS011;70402;42.670;23.258;2023-10-19T02:51:45;11.30;;;6.40;;
5299;SDS011;70402;42.670;23.258;2023-10-19T02:54:12;10.03;;;6.50;;
5299;SDS011;70402;42.670;23.258;2023-10-19T02:56:49;15.60;;;7.40;;
5299;SDS011;70402;42.670;23.258;2023-10-19T02:59:17;13.10;;;6.50;;
5299;SDS011;70402;42.670;23.258;2023-10-19T03:01:51;11.15;;;6.65;;
5299;SDS011;70402;42.670;23.258;2023-10-19T03:04:25;8.40;;;6.17;;
5299;SDS011;70402;42.670;23.258;2023-10-19T03:06:53;10.73;;;6.77;;
5299;SDS011;70402;42.670;23.258;2023-10-19T03:09:21;12.57;;;6.50;;
5299;SDS011;70402;42.670;23.258;2023-10-19T03:11:52;15.20;;;7.37;;
5299;SDS011;70402;42.670;23.258;2023-10-19T03:14:20;10.43;;;6.97;;
5299;SDS011;70402;42.670;23.258;2023-10-19T03:16:50;8.73;;;5.80;;
5299;SDS011;70402;42.670;23.258;2023-10-19T03:19:16;13.60;;;5.93;;
5299;SDS011;70402;42.670;23.258;2023-10-19T03:21:43;9.85;;;6.18;;
5299;SDS011;70402;42.670;23.258;2023-10-19T03:24:09;10.77;;;6.50;;
5299;SDS011;70402;42.670;23.258;2023-10-19T03:26:40;8.30;;;5.37;;
5299;SDS011;70402;42.670;23.258;2023-10-19T03:29:14;8.87;;;5.80;;
5299;SDS011;70402;42.670;23.258;2023-10-19T03:31:41;9.87;;;5.13;;
5299;SDS011;70402;42.670;23.258;2023-10-19T03:34:10;7.90;;;5.10;;
5299;SDS011;70402;42.670;23.258;2023-10-19T03:36:38;9.97;;;5.77;;
5299;SDS011;70402;42.670;23.258;2023-10-19T03:39:04;9.50;;;6.67;;
5299;SDS011;70402;42.670;23.258;2023-10-19T03:41:42;10.63;;;7.00;;
5299;SDS011;70402;42.670;23.258;2023-10-19T03:44:12;10.60;;;7.15;;
5299;SDS011;70402;42.670;23.258;2023-10-19T03:46:52;10.77;;;6.33;;
5299;SDS011;70402;42.670;23.258;2023-10-19T03:49:21;25.60;;;7.47;;
5299;SDS011;70402;42.670;23.258;2023-10-19T03:51:51;13.87;;;8.30;;
5299;SDS011;70402;42.670;23.258;2023-10-19T03:54:26;11.70;;;6.77;;
5299;SDS011;70402;42.670;23.258;2023-10-19T03:56:53;12.13;;;6.93;;
5299;SDS011;70402;42.670;23.258;2023-10-19T03:59:21;10.50;;;6.20;;
5299;SDS011;70402;42.670;23.258;2023-10-19T04:01:48;11.50;;;7.67;;
5299;SDS011;70402;42.670;23.258;2023-10-19T04:04:14;11.27;;;6.40;;
5299;SDS011;70402;42.670;23.258;2023-10-19T04:06:41;13.00;;;7.80;;
5299;SDS011;70402;42.670;23.258;2023-10-19T04:09:23;13.23;;;6.27;;
5299;SDS011;70402;42.670;23.258;2023-10-19T04:11:55;12.00;;;7.70;;
5299;SDS011;70402;42.670;23.258;2023-10-19T04:14:21;15.75;;;7.70;;
5299;SDS011;70402;42.670;23.258;2023-10-19T04:16:48;13.60;;;8.53;;
5299;SDS011;70402;42.670;23.258;2023-10-19T04:19:14;15.20;;;8.00;;
5299;SDS011;70402;42.670;23.258;2023-10-19T04:21:41;13.57;;;7.25;;
5299;SDS011;70402;42.670;23.258;2023-10-19T04:24:12;18.17;;;8.50;;
5299;SDS011;70402;42.670;23.258;2023-10-19T04:26:39;15.73;;;9.10;;
5299;SDS011;70402;42.670;23.258;2023-10-19T04:29:06;14.77;;;8.50;;
5299;SDS011;70402;42.670;23.258;2023-10-19T04:31:42;12.97;;;8.57;;
5299;SDS011;70402;42.670;23.258;2023-10-19T04:34:21;14.37;;;8.50;;
5299;SDS011;70402;42.670;23.258;2023-10-19T04:36:47;16.07;;;10.50;;
5299;SDS011;70402;42.670;23.258;2023-10-19T04:39:13;16.23;;;9.50;;
5299;SDS011;70402;42.670;23.258;2023-10-19T04:41:40;16.87;;;9.37;;
5299;SDS011;70402;42.670;23.258;2023-10-19T04:44:06;12.80;;;7.97;;
5299;SDS011;70402;42.670;23.258;2023-10-19T04:46:35;14.17;;;8.83;;
5299;SDS011;70402;42.670;23.258;2023-10-19T04:49:02;15.18;;;9.73;;
5299;SDS011;70402;42.670;23.258;2023-10-19T04:51:29;13.87;;;9.07;;
5299;SDS011;70402;42.670;23.258;2023-10-19T04:53:55;17.03;;;9.83;;
5299;SDS011;70402;42.670;23.258;2023-10-19T04:56:21;17.00;;;9.93;;
5299;SDS011;70402;42.670;23.258;2023-10-19T04:58:47;20.07;;;9.50;;
5299;SDS011;70402;42.670;23.258;2023-10-19T05:01:13;22.73;;;11.83;;
5299;SDS011;70402;42.670;23.258;2023-10-19T05:03:40;21.40;;;10.80;;
5299;SDS011;70402;42.670;23.258;2023-10-19T05:06:09;19.77;;;11.77;;
5299;SDS011;70402;42.670;23.258;2023-10-19T05:08:35;22.48;;;12.90;;
5299;SDS011;70402;42.670;23.258;2023-10-19T05:11:02;25.43;;;12.07;;
5299;SDS011;70402;42.670;23.258;2023-10-19T05:13:30;20.87;;;12.03;;
5299;SDS011;70402;42.670;23.258;2023-10-19T05:15:58;19.07;;;10.10;;
5299;SDS011;70402;42.670;23.258;2023-10-19T05:18:24;14.83;;;9.80;;
5299;SDS011;70402;42.670;23.258;2023-10-19T05:20:51;17.57;;;9.53;;
5299;SDS011;70402;42.670;23.258;2023-10-19T05:23:23;15.77;;;8.90;;
5299;SDS011;70402;42.670;23.258;2023-10-19T05:25:50;13.50;;;7.57;;
5299;SDS011;70402;42.670;23.258;2023-10-19T05:28:18;16.10;;;9.20;;
5299;SDS011;70402;42.670;23.258;2023-10-19T05:30:47;15.77;;;9.47;;
5299;SDS011;70402;42.670;23.258;2023-10-19T05:33:16;13.73;;;8.10;;
5299;SDS011;70402;42.670;23.258;2023-10-19T05:35:45;18.03;;;9.47;;
5299;SDS011;70402;42.670;23.258;2023-10-19T05:38:15;13.20;;;8.53;;
5299;SDS011;70402;42.670;23.258;2023-10-19T05:40:42;12.53;;;8.50;;
5299;SDS011;70402;42.670;23.258;2023-10-19T05:43:08;11.90;;;7.83;;
5299;SDS011;70402;42.670;23.258;2023-10-19T05:45:34;14.20;;;7.80;;
5299;SDS011;70402;42.670;23.258;2023-10-19T05:48:04;14.43;;;9.53;;
5299;SDS011;70402;42.670;23.258;2023-10-19T05:50:32;16.83;;;9.27;;
5299;SDS011;70402;42.670;23.258;2023-10-19T05:52:59;12.60;;;7.68;;
5299;SDS011;70402;42.670;23.258;2023-10-19T05:55:25;13.63;;;7.80;;
5299;SDS011;70402;42.670;23.258;2023-10-19T05:57:51;11.03;;;7.43;;
5299;SDS011;70402;42.670;23.258;2023-10-19T06:00:17;22.40;;;11.50;;
5299;SDS011;70402;42.670;23.258;2023-10-19T06:02:46;21.80;;;10.90;;
5299;SDS011;70402;42.670;23.258;2023-10-19T06:05:14;16.50;;;9.10;;
5299;SDS011;70402;42.670;23.258;2023-10-19T06:07:41;19.80;;;11.20;;
5299;SDS011;70402;42.670;23.258;2023-10-19T06:10:10;27.57;;;11.40;;
5299;SDS011;70402;42.670;23.258;2023-10-19T06:12:41;16.40;;;9.17;;
5299;SDS011;70402;42.670;23.258;2023-10-19T06:15:09;19.23;;;11.00;;
5299;SDS011;70402;42.670;23.258;2023-10-19T06:17:39;20.00;;;11.80;;
5299;SDS011;70402;42.670;23.258;2023-10-19T06:20:06;18.90;;;11.00;;
5299;SDS011;70402;42.670;23.258;2023-10-19T06:22:36;24.00;;;12.43;;
5299;SDS011;70402;42.670;23.258;2023-10-19T06:25:02;21.27;;;11.07;;
5299;SDS011;70402;42.670;23.258;2023-10-19T06:27:31;19.57;;;11.03;;
5299;SDS011;70402;42.670;23.258;2023-10-19T06:29:57;20.00;;;10.83;;
5299;SDS011;70402;42.670;23.258;2023-10-19T06:32:23;20.60;;;12.02;;
5299;SDS011;70402;42.670;23.258;2023-10-19T06:34:49;17.40;;;11.67;;
5299;SDS011;70402;42.670;23.258;2023-10-19T06:37:15;25.03;;;11.57;;
5299;SDS011;70402;42.670;23.258;2023-10-19T06:39:41;22.90;;;11.90;;
5299;SDS011;70402;42.670;23.258;2023-10-19T06:42:07;20.60;;;11.93;;
5299;SDS011;70402;42.670;23.258;2023-10-19T06:44:40;21.43;;;11.33;;
5299;SDS011;70402;42.670;23.258;2023-10-19T06:47:08;23.15;;;12.68;;
5299;SDS011;70402;42.670;23.258;2023-10-19T06:49:35;21.60;;;12.13;;
5299;SDS011;70402;42.670;23.258;2023-10-19T06:52:01;21.77;;;11.57;;
5299;SDS011;70402;42.670;23.258;2023-10-19T06:54:30;22.70;;;12.20;;
5299;SDS011;70402;42.670;23.258;2023-10-19T06:56:57;17.37;;;10.33;;
5299;SDS011;70402;42.670;23.258;2023-10-19T06:59:23;22.13;;;10.50;;
5299;SDS011;70402;42.670;23.258;2023-10-19T07:01:49;19.63;;;11.67;;
5299;SDS011;70402;42.670;23.258;2023-10-19T07:04:15;25.23;;;11.90;;
5299;SDS011;70402;42.670;23.258;2023-10-19T07:06:41;19.07;;;10.83;;
5299;SDS011;70402;42.670;23.258;2023-10-19T07:09:07;18.00;;;10.80;;
5299;SDS011;70402;42.670;23.258;2023-10-19T07:11:35;26.13;;;11.50;;
5299;SDS011;70402;42.670;23.258;2023-10-19T07:14:01;24.92;;;10.40;;
5299;SDS011;70402;42.670;23.258;2023-10-19T07:16:28;19.00;;;11.23;;
5299;SDS011;70402;42.670;23.258;2023-10-19T07:18:55;19.50;;;11.63;;
5299;SDS011;70402;42.670;23.258;2023-10-19T07:21:22;24.53;;;11.87;;
5299;SDS011;70402;42.670;23.258;2023-10-19T07:23:48;16.70;;;11.03;;
5299;SDS011;70402;42.670;23.258;2023-10-19T07:26:17;16.30;;;10.33;;
5299;SDS011;70402;42.670;23.258;2023-10-19T07:28:44;17.53;;;10.87;;
5299;SDS011;70402;42.670;23.258;2023-10-19T07:31:10;19.27;;;11.57;;
5299;SDS011;70402;42.670;23.258;2023-10-19T07:33:40;18.27;;;9.77;;
5299;SDS011;70402;42.670;23.258;2023-10-19T07:36:13;19.03;;;10.20;;
5299;SDS011;70402;42.670;23.258;2023-10-19T07:38:43;15.30;;;9.30;;
5299;SDS011;70402;42.670;23.258;2023-10-19T07:41:11;15.07;;;8.60;;
5299;SDS011;70402;42.670;23.258;2023-10-19T07:43:37;14.33;;;9.20;;
5299;SDS011;70402;42.670;23.258;2023-10-19T07:46:04;21.60;;;9.57;;
5299;SDS011;70402;42.670;23.258;2023-10-19T07:48:30;13.77;;;8.40;;
5299;SDS011;70402;42.670;23.258;2023-10-19T07:50:56;14.30;;;9.03;;
5299;SDS011;70402;42.670;23.258;2023-10-19T07:53:22;13.47;;;8.80;;
5299;SDS011;70402;42.670;23.258;2023-10-19T07:55:49;16.60;;;9.33;;
5299;SDS011;70402;42.670;23.258;2023-10-19T07:58:16;14.23;;;8.50;;
5299;SDS011;70402;42.670;23.258;2023-10-19T08:00:42;12.60;;;7.50;;
5299;SDS011;70402;42.670;23.258;2023-10-19T08:03:07;12.83;;;8.17;;
5299;SDS011;70402;42.670;23.258;2023-10-19T08:05:35;15.10;;;9.13;;
5299;SDS011;70402;42.670;23.258;2023-10-19T08:08:03;14.90;;;9.67;;
5299;SDS011;70402;42.670;23.258;2023-10-19T08:10:31;13.60;;;8.50;;
5299;SDS011;70402;42.670;23.258;2023-10-19T08:13:00;13.87;;;8.50;;
5299;SDS011;70402;42.670;23.258;2023-10-19T08:15:26;20.20;;;9.27;;
5299;SDS011;70402;42.670;23.258;2023-10-19T08:17:55;13.50;;;8.30;;
5299;SDS011;70402;42.670;23.258;2023-10-19T08:20:21;12.73;;;9.20;;
5299;SDS011;70402;42.670;23.258;2023-10-19T08:22:55;13.40;;;8.00;;
5299;SDS011;70402;42.670;23.258;2023-10-19T08:25:22;13.80;;;8.47;;
5299;SDS011;70402;42.670;23.258;2023-10-19T08:27:48;18.10;;;9.70;;
5299;SDS011;70402;42.670;23.258;2023-10-19T08:30:21;14.97;;;8.53;;
5299;SDS011;70402;42.670;23.258;2023-10-19T08:32:48;12.63;;;7.77;;
5299;SDS011;70402;42.670;23.258;2023-10-19T08:35:15;12.50;;;8.55;;
5299;SDS011;70402;42.670;23.258;2023-10-19T08:37:45;12.37;;;7.97;;
5299;SDS011;70402;42.670;23.258;2023-10-19T08:40:12;11.97;;;7.77;;
5299;SDS011;70402;42.670;23.258;2023-10-19T08:42:40;14.93;;;9.00;;
5299;SDS011;70402;42.670;23.258;2023-10-19T08:45:07;12.02;;;8.55;;
5299;SDS011;70402;42.670;23.258;2023-10-19T08:47:35;11.87;;;8.23;;
5299;SDS011;70402;42.670;23.258;2023-10-19T08:50:02;13.43;;;8.88;;
5299;SDS011;70402;42.670;23.258;2023-10-19T08:52:30;11.57;;;8.60;;
5299;SDS011;70402;42.670;23.258;2023-10-19T08:54:57;17.00;;;9.40;;
5299;SDS011;70402;42.670;23.258;2023-10-19T08:57:23;17.07;;;10.53;;
5299;SDS011;70402;42.670;23.258;2023-10-19T08:59:49;20.65;;;9.25;;
5299;SDS011;70402;42.670;23.258;2023-10-19T09:02:15;14.83;;;9.67;;
5299;SDS011;70402;42.670;23.258;2023-10-19T09:04:42;22.10;;;9.80;;
5299;SDS011;70402;42.670;23.258;2023-10-19T09:07:11;13.50;;;9.77;;
5299;SDS011;70402;42.670;23.258;2023-10-19T09:09:37;19.20;;;11.03;;
5299;SDS011;70402;42.670;23.258;2023-10-19T09:12:08;19.97;;;10.67;;
5299;SDS011;70402;42.670;23.258;2023-10-19T09:14:35;16.60;;;10.43;;
5299;SDS011;70402;42.670;23.258;2023-10-19T09:17:05;15.27;;;8.60;;
5299;SDS011;70402;42.670;23.258;2023-10-19T09:19:40;12.43;;;7.67;;
5299;SDS011;70402;42.670;23.258;2023-10-19T09:22:08;9.70;;;6.80;;
5299;SDS011;70402;42.670;23.258;2023-10-19T09:24:44;11.93;;;7.50;;
5299;SDS011;70402;42.670;23.258;2023-10-19T09:27:11;11.23;;;6.50;;
5299;SDS011;70402;42.670;23.258;2023-10-19T09:29:38;10.77;;;7.13;;
5299;SDS011;70402;42.670;23.258;2023-10-19T09:32:06;12.10;;;6.88;;
5299;SDS011;70402;42.670;23.258;2023-10-19T09:34:33;11.25;;;7.38;;
5299;SDS011;70402;42.670;23.258;2023-10-19T09:36:59;16.70;;;7.97;;
5299;SDS011;70402;42.670;23.258;2023-10-19T09:39:27;13.73;;;7.17;;
5299;SDS011;70402;42.670;23.258;2023-10-19T09:42:03;12.47;;;7.43;;
5299;SDS011;70402;42.670;23.258;2023-10-19T09:47:12;15.90;;;6.05;;
5299;SDS011;70402;42.670;23.258;2023-10-19T09:49:40;11.20;;;7.10;;
5299;SDS011;70402;42.670;23.258;2023-10-19T09:52:08;10.13;;;6.68;;
5299;SDS011;70402;42.670;23.258;2023-10-19T09:57:34;10.00;;;5.47;;
5299;SDS011;70402;42.670;23.258;2023-10-19T10:00:03;8.67;;;5.40;;
5299;SDS011;70402;42.670;23.258;2023-10-19T10:02:42;15.30;;;4.77;;
5299;SDS011;70402;42.670;23.258;2023-10-19T10:11:20;6.30;;;4.70;;
5299;SDS011;70402;42.670;23.258;2023-10-19T10:13:47;8.73;;;5.27;;
5299;SDS011;70402;42.670;23.258;2023-10-19T10:16:20;10.50;;;5.37;;
5299;SDS011;70402;42.670;23.258;2023-10-19T10:18:48;7.10;;;5.00;;
5299;SDS011;70402;42.670;23.258;2023-10-19T10:24:00;6.27;;;4.17;;
5299;SDS011;70402;42.670;23.258;2023-10-19T10:26:29;6.50;;;4.17;;
5299;SDS011;70402;42.670;23.258;2023-10-19T10:29:13;8.23;;;5.20;;
5299;SDS011;70402;42.670;23.258;2023-10-19T10:31:45;10.10;;;5.20;;
5299;SDS011;70402;42.670;23.258;2023-10-19T10:39:27;7.50;;;5.17;;
5299;SDS011;70402;42.670;23.258;2023-10-19T10:41:58;6.50;;;4.60;;
5299;SDS011;70402;42.670;23.258;2023-10-19T10:44:39;8.63;;;4.53;;
5299;SDS011;70402;42.670;23.258;2023-10-19T10:47:10;6.97;;;4.30;;
5299;SDS011;70402;42.670;23.258;2023-10-19T10:49:46;10.00;;;5.33;;
5299;SDS011;70402;42.670;23.258;2023-10-19T10:55:13;7.03;;;5.40;;
5299;SDS011;70402;42.670;23.258;2023-10-19T10:57:40;11.00;;;4.97;;
5299;SDS011;70402;42.670;23.258;2023-10-19T11:02:41;7.23;;;4.70;;
5299;SDS011;70402;42.670;23.258;2023-10-19T11:05:08;8.40;;;5.17;;
5299;SDS011;70402;42.670;23.258;2023-10-19T11:07:37;7.47;;;5.20;;
5299;SDS011;70402;42.670;23.258;2023-10-19T11:10:04;7.07;;;4.50;;
5299;SDS011;70402;42.670;23.258;2023-10-19T11:12:31;7.77;;;5.37;;
5299;SDS011;70402;42.670;23.258;2023-10-19T11:14:58;10.73;;;5.80;;
5299;SDS011;70402;42.670;23.258;2023-10-19T11:17:24;9.63;;;5.20;;
5299;SDS011;70402;42.670;23.258;2023-10-19T11:19:57;6.73;;;4.63;;
5299;SDS011;70402;42.670;23.258;2023-10-19T11:22:24;7.17;;;4.70;;
5299;SDS011;70402;42.670;23.258;2023-10-19T11:24:51;6.93;;;4.70;;
5299;SDS011;70402;42.670;23.258;2023-10-19T11:27:21;7.40;;;4.20;;
5299;SDS011;70402;42.670;23.258;2023-10-19T11:29:57;6.70;;;4.47;;
5299;SDS011;70402;42.670;23.258;2023-10-19T11:32:24;7.10;;;4.27;;
5299;SDS011;70402;42.670;23.258;2023-10-19T11:34:56;7.50;;;4.60;;
5299;SDS011;70402;42.670;23.258;2023-10-19T11:37:22;13.03;;;4.30;;
5299;SDS011;70402;42.670;23.258;2023-10-19T11:39:48;6.10;;;4.60;;
5299;SDS011;70402;42.670;23.258;2023-10-19T11:42:17;6.43;;;4.13;;
5299;SDS011;70402;42.670;23.258;2023-10-19T11:44:44;8.90;;;4.67;;
5299;SDS011;70402;42.670;23.258;2023-10-19T11:47:10;5.73;;;3.77;;
5299;SDS011;70402;42.670;23.258;2023-10-19T11:49:36;6.60;;;4.10;;
5299;SDS011;70402;42.670;23.258;2023-10-19T11:52:06;8.23;;;4.90;;
5299;SDS011;70402;42.670;23.258;2023-10-19T11:54:35;7.40;;;4.60;;
5299;SDS011;70402;42.670;23.258;2023-10-19T11:57:01;7.30;;;4.23;;
5299;SDS011;70402;42.670;23.258;2023-10-19T11:59:27;8.63;;;4.13;;
5299;SDS011;70402;42.670;23.258;2023-10-19T12:01:54;6.00;;;3.50;;
5299;SDS011;70402;42.670;23.258;2023-10-19T12:04:20;5.80;;;3.73;;
5299;SDS011;70402;42.670;23.258;2023-10-19T12:06:46;4.60;;;3.70;;
5299;SDS011;70402;42.670;23.258;2023-10-19T12:09:12;4.87;;;3.37;;
5299;SDS011;70402;42.670;23.258;2023-10-19T12:11:41;7.20;;;4.37;;
5299;SDS011;70402;42.670;23.258;2023-10-19T12:14:07;6.27;;;4.60;;
5299;SDS011;70402;42.670;23.258;2023-10-19T12:16:40;4.93;;;3.58;;
5299;SDS011;70402;42.670;23.258;2023-10-19T12:19:06;6.40;;;3.57;;
5299;SDS011;70402;42.670;23.258;2023-10-19T12:21:35;6.23;;;4.00;;
5299;SDS011;70402;42.670;23.258;2023-10-19T12:24:03;6.43;;;3.78;;
5299;SDS011;70402;42.670;23.258;2023-10-19T12:26:30;5.40;;;3.60;;
5299;SDS011;70402;42.670;23.258;2023-10-19T12:28:56;7.47;;;4.43;;
5299;SDS011;70402;42.670;23.258;2023-10-19T12:31:21;7.23;;;3.80;;
5299;SDS011;70402;42.670;23.258;2023-10-19T12:33:48;5.43;;;3.90;;
5299;SDS011;70402;42.670;23.258;2023-10-19T12:36:14;9.93;;;4.07;;
5299;SDS011;70402;42.670;23.258;2023-10-19T12:38:46;5.97;;;4.50;;
5299;SDS011;70402;42.670;23.258;2023-10-19T12:41:12;9.07;;;4.17;;
5299;SDS011;70402;42.670;23.258;2023-10-19T12:43:39;5.65;;;3.70;;
5299;SDS011;70402;42.670;23.258;2023-10-19T12:46:05;6.23;;;3.60;;
5299;SDS011;70402;42.670;23.258;2023-10-19T12:48:34;5.40;;;3.33;;
5299;SDS011;70402;42.670;23.258;2023-10-19T12:51:00;5.80;;;3.63;;
5299;SDS011;70402;42.670;23.258;2023-10-19T12:53:27;5.87;;;3.80;;
5299;SDS011;70402;42.670;23.258;2023-10-19T12:55:53;5.47;;;3.80;;
5299;SDS011;70402;42.670;23.258;2023-10-19T12:58:19;6.20;;;4.00;;
5299;SDS011;70402;42.670;23.258;2023-10-19T13:00:46;5.20;;;4.00;;
5299;SDS011;70402;42.670;23.258;2023-10-19T13:03:14;6.67;;;3.50;;
5299;SDS011;70402;42.670;23.258;2023-10-19T13:05:41;4.70;;;3.73;;
5299;SDS011;70402;42.670;23.258;2023-10-19T13:08:12;6.00;;;3.90;;
5299;SDS011;70402;42.670;23.258;2023-10-19T13:10:39;6.20;;;3.50;;
5299;SDS011;70402;42.670;23.258;2023-10-19T13:13:08;4.23;;;3.40;;
5299;SDS011;70402;42.670;23.258;2023-10-19T13:15:39;8.30;;;4.10;;
5299;SDS011;70402;42.670;23.258;2023-10-19T13:18:06;7.85;;;3.53;;
5299;SDS011;70402;42.670;23.258;2023-10-19T13:20:37;5.30;;;3.60;;
5299;SDS011;70402;42.670;23.258;2023-10-19T13:23:04;7.30;;;4.70;;
5299;SDS011;70402;42.670;23.258;2023-10-19T13:25:37;7.37;;;3.80;;
5299;SDS011;70402;42.670;23.258;2023-10-19T13:28:16;8.10;;;3.70;;
5299;SDS011;70402;42.670;23.258;2023-10-19T13:30:46;5.20;;;2.80;;
5299;SDS011;70402;42.670;23.258;2023-10-19T13:33:13;6.23;;;4.57;;
5299;SDS011;70402;42.670;23.258;2023-10-19T13:35:40;6.87;;;4.20;;
5299;SDS011;70402;42.670;23.258;2023-10-19T13:38:09;5.83;;;3.53;;
5299;SDS011;70402;42.670;23.258;2023-10-19T13:40:39;6.50;;;4.00;;
5299;SDS011;70402;42.670;23.258;2023-10-19T13:43:06;5.07;;;3.75;;
5299;SDS011;70402;42.670;23.258;2023-10-19T13:45:33;4.90;;;3.65;;
5299;SDS011;70402;42.670;23.258;2023-10-19T13:48:01;4.83;;;3.37;;
5299;SDS011;70402;42.670;23.258;2023-10-19T13:50:31;7.13;;;4.37;;
5299;SDS011;70402;42.670;23.258;2023-10-19T13:52:58;5.20;;;3.53;;
5299;SDS011;70402;42.670;23.258;2023-10-19T13:55:30;7.77;;;4.43;;
5299;SDS011;70402;42.670;23.258;2023-10-19T13:57:56;5.07;;;3.63;;
5299;SDS011;70402;42.670;23.258;2023-10-19T14:00:23;5.60;;;3.83;;
5299;SDS011;70402;42.670;23.258;2023-10-19T14:02:53;7.93;;;4.17;;
5299;SDS011;70402;42.670;23.258;2023-10-19T14:05:19;7.97;;;3.50;;
5299;SDS011;70402;42.670;23.258;2023-10-19T14:07:46;6.03;;;3.73;;
5299;SDS011;70402;42.670;23.258;2023-10-19T14:10:12;8.00;;;3.47;;
5299;SDS011;70402;42.670;23.258;2023-10-19T14:12:39;8.37;;;3.87;;
5299;SDS011;70402;42.670;23.258;2023-10-19T14:15:14;5.70;;;3.30;;
5299;SDS011;70402;42.670;23.258;2023-10-19T14:17:43;5.40;;;2.73;;
5299;SDS011;70402;42.670;23.258;2023-10-19T14:20:11;5.63;;;3.50;;
5299;SDS011;70402;42.670;23.258;2023-10-19T14:22:41;6.60;;;3.83;;
5299;SDS011;70402;42.670;23.258;2023-10-19T14:25:12;4.30;;;3.27;;
5299;SDS011;70402;42.670;23.258;2023-10-19T14:27:47;8.53;;;3.50;;
5299;SDS011;70402;42.670;23.258;2023-10-19T14:30:17;4.32;;;2.78;;
5299;SDS011;70402;42.670;23.258;2023-10-19T14:32:47;4.70;;;3.50;;
5299;SDS011;70402;42.670;23.258;2023-10-19T14:35:15;5.87;;;3.40;;
5299;SDS011;70402;42.670;23.258;2023-10-19T14:37:48;5.80;;;3.77;;
5299;SDS011;70402;42.670;23.258;2023-10-19T14:40:16;5.07;;;3.67;;
5299;SDS011;70402;42.670;23.258;2023-10-19T14:42:45;6.90;;;3.67;;
5299;SDS011;70402;42.670;23.258;2023-10-19T14:45:12;7.43;;;3.53;;
5299;SDS011;70402;42.670;23.258;2023-10-19T14:47:41;5.97;;;3.60;;
5299;SDS011;70402;42.670;23.258;2023-10-19T14:50:11;7.33;;;4.40;;
5299;SDS011;70402;42.670;23.258;2023-10-19T14:52:41;9.00;;;3.75;;
5299;SDS011;70402;42.670;23.258;2023-10-19T14:55:08;7.55;;;3.47;;
5299;SDS011;70402;42.670;23.258;2023-10-19T14:57:35;9.40;;;3.93;;
5299;SDS011;70402;42.670;23.258;2023-10-19T15:00:05;19.10;;;4.90;;
5299;SDS011;70402;42.670;23.258;2023-10-19T15:02:44;12.10;;;5.20;;
5299;SDS011;70402;42.670;23.258;2023-10-19T15:05:13;8.23;;;4.10;;
5299;SDS011;70402;42.670;23.258;2023-10-19T15:07:44;4.37;;;2.60;;
5299;SDS011;70402;42.670;23.258;2023-10-19T15:10:20;11.73;;;4.93;;
5299;SDS011;70402;42.670;23.258;2023-10-19T15:12:50;11.27;;;4.87;;
5299;SDS011;70402;42.670;23.258;2023-10-19T15:15:17;9.07;;;4.80;;
5299;SDS011;70402;42.670;23.258;2023-10-19T15:17:46;24.47;;;6.60;;